Terminal Aerodrome Forecast
Issued by NWS Cleveland, OH

Home | Current Version | Previous Version | Graphics & Text | Print | Product List | Glossary Off
Versions: 1 2 3 4 5 6 7 8 9 10 11 12 13 14 15 16 17 18 19 20 21 22 23 24 25 26 27

639
FTUS41 KCLE 231947 AAB
TAFCLE
TAF AMD
KCLE 231947Z 2320/2424 04001KT 4SM -DZ BR BKN003 OVC060
      TEMPO 2320/2324 2SM BR OVC002
     FM240000 03008KT 1 1/2SM -DZ BR OVC005
     FM241600 34007KT 4SM BR OVC010=

USA.gov is the U.S. government's official web portal to all federal, state and local government web resources and services.